Time;durP1;ratioP1;P1;durP2;ratioP2;P2;SDS_P1;SDS_P2;PMS_P1;PMS_P2;Temp;Humidity;BMP_temperature;BMP_pressure;BME280_temperature;BME280_humidity;BME280_pressure;Samples;Min_cycle;Max_cycle;Signal;HPM_P1;HPM_P2
2023/05/26 05:59:16;;;;;;;1.05;0.95;;;;;;;;;;7404136;19;20596;-90
2023/05/26 06:02:05;;;;;;;1.67;1.58;;;;;;;;;;7399062;19;20137;-92
2023/05/26 06:04:32;;;;;;;0.73;0.70;;;;;;;;;;7396800;19;20132;-91
2023/05/26 06:06:58;;;;;;;1.40;1.25;;;;;;;;;;7398813;19;20173;-93
2023/05/26 06:12:17;;;;;;;0.88;0.88;;;;;;;;;;7403011;19;20120;-91
2023/05/26 06:14:44;;;;;;;1.10;1.10;;;;;;;;;;7400980;19;20147;-93
2023/05/26 06:17:10;;;;;;;2.25;1.13;;;;;;;;;;7394384;19;20200;-92
2023/05/26 06:19:37;;;;;;;0.55;0.55;;;;;;;;;;7395621;19;20173;-93
2023/05/26 06:22:04;;;;;;;0.50;0.50;;;;;;;;;;7398357;19;20193;-93
2023/05/26 06:24:31;;;;;;;0.70;0.70;;;;;;;;;;7393898;19;20137;-90
2023/05/26 13:18:00;;;;;;;2.05;1.50;;;;;;;;;;7401989;19;20204;-91
2023/05/26 15:35:28;;;;;;;1.42;1.10;;;;;;;;;;7397498;19;20129;-87
2023/05/26 15:37:55;;;;;;;0.73;0.73;;;;;;;;;;7395475;19;20138;-86
2023/05/26 15:40:28;;;;;;;0.68;0.68;;;;;;;;;;7388230;19;20641;-86
2023/05/26 15:42:55;;;;;;;0.75;0.75;;;;;;;;;;7395299;19;20628;-86
2023/05/26 15:45:22;;;;;;;0.65;0.65;;;;;;;;;;7395700;19;20139;-86
2023/05/26 15:47:49;;;;;;;1.05;1.05;;;;;;;;;;7393066;19;20428;-88
2023/05/26 15:50:15;;;;;;;0.82;0.82;;;;;;;;;;7393336;19;20167;-89
2023/05/26 15:52:42;;;;;;;0.75;0.75;;;;;;;;;;7398409;19;20208;-89
2023/05/26 15:55:11;;;;;;;1.30;1.30;;;;;;;;;;7399370;19;20258;-89
2023/05/26 15:57:40;;;;;;;0.88;0.88;;;;;;;;;;7398837;19;20172;-89
2023/05/26 16:00:09;;;;;;;0.70;0.70;;;;;;;;;;7398014;19;20522;-86
2023/05/26 16:02:36;;;;;;;0.73;0.65;;;;;;;;;;7399935;19;20158;-88
2023/05/26 16:05:03;;;;;;;0.68;0.68;;;;;;;;;;7393998;19;20149;-88
2023/05/26 16:07:30;;;;;;;1.45;1.27;;;;;;;;;;7390102;19;20219;-89
2023/05/26 16:09:59;;;;;;;0.75;0.75;;;;;;;;;;7384528;19;20746;-90
2023/05/26 16:12:26;;;;;;;0.50;0.50;;;;;;;;;;7396172;19;20212;-90
2023/05/26 16:14:53;;;;;;;0.85;0.85;;;;;;;;;;7393692;19;20136;-90
2023/05/26 16:17:19;;;;;;;0.60;0.60;;;;;;;;;;7396936;19;20144;-88
2023/05/26 16:19:46;;;;;;;0.52;0.52;;;;;;;;;;7398562;19;20239;-89
2023/05/26 16:22:13;;;;;;;1.00;1.00;;;;;;;;;;7399190;19;20159;-87
2023/05/26 16:24:40;;;;;;;1.13;1.10;;;;;;;;;;7395002;19;20196;-88
2023/05/26 16:27:06;;;;;;;0.70;0.70;;;;;;;;;;7395633;19;20133;-88
2023/05/26 16:29:33;;;;;;;1.00;1.00;;;;;;;;;;7390974;19;20172;-87
2023/05/26 16:32:00;;;;;;;1.58;1.20;;;;;;;;;;7396883;19;20193;-88
2023/05/26 16:34:27;;;;;;;1.13;1.02;;;;;;;;;;7398578;19;20133;-88
2023/05/26 16:36:54;;;;;;;1.90;1.30;;;;;;;;;;7395310;19;20147;-88
2023/05/26 16:39:20;;;;;;;0.95;0.95;;;;;;;;;;7396267;19;20149;-88
2023/05/26 16:41:50;;;;;;;0.60;0.60;;;;;;;;;;7396616;19;20605;-90
2023/05/26 16:44:17;;;;;;;1.40;1.00;;;;;;;;;;7396295;19;20143;-88
2023/05/26 16:46:44;;;;;;;1.52;1.42;;;;;;;;;;7403375;19;20133;-88
2023/05/26 16:49:11;;;;;;;0.65;0.65;;;;;;;;;;7402468;19;20159;-89
2023/05/26 16:51:38;;;;;;;1.25;1.25;;;;;;;;;;7400703;19;20133;-90
2023/05/26 16:54:05;;;;;;;0.65;0.65;;;;;;;;;;7405313;19;20301;-89
2023/05/26 16:56:32;;;;;;;1.13;1.05;;;;;;;;;;7403982;19;20137;-89
2023/05/26 16:58:59;;;;;;;0.70;0.70;;;;;;;;;;7399136;19;20169;-89
2023/05/26 17:01:26;;;;;;;1.33;1.23;;;;;;;;;;7399719;19;20140;-89
2023/05/26 17:03:53;;;;;;;0.88;0.82;;;;;;;;;;7396807;19;20137;-89
2023/05/26 17:06:20;;;;;;;1.05;0.95;;;;;;;;;;7398728;19;20136;-89
2023/05/26 17:08:46;;;;;;;0.93;0.90;;;;;;;;;;7395467;19;20176;-90
2023/05/26 17:11:13;;;;;;;0.75;0.75;;;;;;;;;;7397116;19;20160;-87
2023/05/26 17:13:40;;;;;;;0.68;0.68;;;;;;;;;;7397168;19;20597;-89
2023/05/26 17:16:09;;;;;;;0.95;0.95;;;;;;;;;;7402511;19;20133;-91
2023/05/26 17:18:37;;;;;;;1.05;0.95;;;;;;;;;;7404369;19;20151;-89
2023/05/26 17:21:04;;;;;;;1.10;1.00;;;;;;;;;;7405126;19;20143;-89
2023/05/26 17:23:33;;;;;;;0.50;0.50;;;;;;;;;;7411431;19;20143;-89
2023/05/26 17:26:00;;;;;;;1.00;1.00;;;;;;;;;;7411058;19;20145;-90
2023/05/26 17:28:26;;;;;;;0.90;0.90;;;;;;;;;;7412001;19;20173;-88
2023/05/26 17:30:53;;;;;;;1.02;0.95;;;;;;;;;;7410771;19;20158;-89
2023/05/26 17:33:20;;;;;;;0.60;0.60;;;;;;;;;;7415258;19;20815;-89
2023/05/26 17:35:47;;;;;;;0.90;0.90;;;;;;;;;;7408912;19;20144;-89
2023/05/26 17:38:14;;;;;;;2.00;1.40;;;;;;;;;;7405139;19;20163;-90
2023/05/26 17:41:58;;;;;;;1.85;1.15;;;;;;;;;;7403215;19;20208;-89
2023/05/26 17:48:14;;;;;;;1.00;0.68;;;;;;;;;;7398459;19;20164;-89
2023/05/26 17:55:54;;;;;;;0.60;0.60;;;;;;;;;;7399335;19;20156;-91
2023/05/26 17:59:19;;;;;;;1.33;0.93;;;;;;;;;;7398160;19;20157;-90
2023/05/26 18:02:07;;;;;;;0.80;0.80;;;;;;;;;;7401029;19;20212;-88
2023/05/26 18:08:17;;;;;;;0.98;0.98;;;;;;;;;;7400747;19;20144;-89
2023/05/26 18:11:18;;;;;;;0.85;0.73;;;;;;;;;;7398760;19;20662;-89
2023/05/26 18:14:01;;;;;;;1.98;0.80;;;;;;;;;;7394543;19;20137;-89
2023/05/26 18:19:50;;;;;;;2.50;1.30;;;;;;;;;;7395570;19;20179;-92
2023/05/26 18:37:08;;;;;;;0.68;0.68;;;;;;;;;;7397112;19;20700;-91
2023/05/26 18:52:56;;;;;;;0.65;0.65;;;;;;;;;;7183881;19;52204;-89
2023/05/26 19:00:06;;;;;;;0.50;0.50;;;;;;;;;;7428173;19;20156;-90
